This is the latest recevied weather packets stored in our database for station/object W6MAF. If no packets are shown the sender has not sent any weather packets the latest 1 day(s).
| Time | Temp. | Humidity | Pressure | Rain* | Wind** | Luminosity | Snow |
|---|---|---|---|---|---|---|---|
| 1778042093 | 7.22° C | 76% | - | 0 mm | 4.92 m/s, 212° | - | - |
| 1778041796 | 7.22° C | 75% | - | 0 mm | 4.92 m/s, 214° | - | - |
| 1778041494 | 7.22° C | 74% | - | 0 mm | 3.58 m/s, 217° | - | - |
| 1778041196 | 7.22° C | 74% | - | 0 mm | 4.92 m/s, 229° | - | - |
| 1778040899 | 7.22° C | 72% | - | 0 mm | 4.92 m/s, 215° | - | - |
| 1778040601 | 7.22° C | 71% | - | 0 mm | 5.36 m/s, 210° | - | - |
| 1778040006 | 7.78° C | 69% | - | 0 mm | 5.36 m/s, 222° | - | - |
| 1778039705 | 7.78° C | 68% | - | 0 mm | 4.92 m/s, 226° | - | - |
| 1778039407 | 7.78° C | 66% | - | 0 mm | 5.36 m/s, 210° | - | - |
| 1778039109 | 7.78° C | 65% | - | 0 mm | 5.36 m/s, 225° | - | - |
| 1778038812 | 7.78° C | 64% | - | 0 mm | 4.47 m/s, 201° | - | - |
| 1778038514 | 8.33° C | 62% | - | 0 mm | 4.92 m/s, 212° | - | - |
| 1778038256 | 8.33° C | - | - | 0 mm | 4.92 m/s, 224° | - | - |
| 1778038218 | 8.33° C | - | - | 0 mm | 4.92 m/s, 224° | - | - |
| 1778037916 | 8.33° C | 59% | - | 0 mm | 3.58 m/s, 214° | - | - |
| 1778037023 | 8.33° C | 56% | - | 0 mm | 3.58 m/s, 219° | - | - |
| 1778036127 | 8.89° C | 53% | - | 0 mm | 4.47 m/s, 226° | - | - |
| 1778035888 | 13.89° C | 36% | - | 0 mm | 4.92 m/s, 210° | - | - |
| 1778035829 | 8.89° C | 52% | - | 0 mm | 4.47 m/s, 240° | - | - |
| 1778035234 | 9.44° C | 51% | - | 0 mm | 4.47 m/s, 228° | - | - |
| 1778034936 | 9.44° C | 50% | - | 0 mm | 4.47 m/s, 229° | - | - |
| 1778034337 | 9.44° C | 49% | - | 0 mm | 4.92 m/s, 229° | - | - |
| 1778034040 | 9.44° C | 49% | - | 0 mm | 6.26 m/s, 225° | - | - |
| 1778033742 | 10° C | 49% | - | 0 mm | 4.47 m/s, 242° | - | - |
| 1778033445 | 10° C | 48% | - | 0 mm | 3.58 m/s, 228° | - | - |
* Rain latest hour (hover to see other rain measurements)
** Current wind speed in m/s (hover to see current wind gust speed)